sim
Sign-in with your pilot id or email,
or register
Callsign
Passwort

Schedule Details

Flight Number: DLH2398
Departure: Munich Airport (EDDM) at 14:05
Arrival: Basel Mulhouse-Freiburg EuroAirport (LFSB) at 15:00
Route: Lufthansa Passenger Schedule. Enter filed route here before submitting Pirep.

Weather Information
Getting current METAR information for EDDM 192150Z VRB01KT CAVOK 10/09 Q1018 NOSIG
Getting current METAR information for LFSB 192130Z AUTO 00000KT CAVOK 16/14 Q1016 NOSIG

Schedule Frequency

Route Map